Time;durP1;ratioP1;P1;durP2;ratioP2;P2;SDS_P1;SDS_P2;PMS_P1;PMS_P2;Temp;Humidity;BMP_temperature;BMP_pressure;BME280_temperature;BME280_humidity;BME280_pressure;Samples;Min_cycle;Max_cycle;Signal;HPM_P1;HPM_P2
2023/09/20 00:00:10;;;;;;;;;;;25.90;73.00;;;;;;5105073;27;43068;-78
2023/09/20 00:02:39;;;;;;;;;;;26.00;72.00;;;;;;5095624;27;43314;-78
2023/09/20 00:05:06;;;;;;;;;;;26.00;72.80;;;;;;5080580;27;42960;-78
2023/09/20 00:07:31;;;;;;;;;;;26.10;72.30;;;;;;5106878;27;43012;-78
2023/09/20 00:09:57;;;;;;;;;;;26.10;71.80;;;;;;5107624;27;42889;-79
2023/09/20 00:12:22;;;;;;;;;;;26.10;72.50;;;;;;5102974;27;43677;-78
2023/09/20 00:14:48;;;;;;;;;;;26.30;72.90;;;;;;5099188;27;43344;-78
2023/09/20 00:17:14;;;;;;;;;;;25.80;72.00;;;;;;5094511;27;42972;-78
2023/09/20 00:19:42;;;;;;;;;;;26.00;72.10;;;;;;5098155;27;42953;-78
2023/09/20 00:22:10;;;;;;;;;;;26.10;72.30;;;;;;5104093;27;43763;-78
2023/09/20 00:24:36;;;;;;;;;;;26.00;72.00;;;;;;5095481;27;43169;-78
2023/09/20 00:27:02;;;;;;;;;;;26.00;71.50;;;;;;5100800;27;43027;-77
2023/09/20 00:29:28;;;;;;;;;;;26.00;70.60;;;;;;5105681;27;42912;-79
2023/09/20 00:31:53;;;;;;;;;;;25.90;71.50;;;;;;5105747;27;43418;-78
2023/09/20 00:34:19;;;;;;;;;;;26.00;71.50;;;;;;5105738;27;43043;-79
2023/09/20 00:36:46;;;;;;;;;;;26.10;71.00;;;;;;5104274;27;43277;-79
2023/09/20 00:39:13;;;;;;;;;;;26.00;69.50;;;;;;5087036;27;43022;-78
2023/09/20 00:41:38;;;;;;;;;;;25.80;70.80;;;;;;5105005;27;43044;-78
2023/09/20 00:44:04;;;;;;;;;;;25.90;71.50;;;;;;5105932;27;43008;-78
2023/09/20 00:46:31;;;;;;;;;;;26.00;70.80;;;;;;5105523;27;43719;-78
2023/09/20 00:48:57;;;;;;;;;;;26.00;71.00;;;;;;5105263;27;43217;-78
2023/09/20 00:51:23;;;;;;;;;;;26.00;70.60;;;;;;5105580;27;43125;-78
2023/09/20 00:53:54;;;;;;;;;;;26.10;70.60;;;;;;5105624;27;42936;-77
2023/09/20 00:56:21;;;;;;;;;;;25.90;68.60;;;;;;5091841;27;43594;-77
2023/09/20 00:58:46;;;;;;;;;;;25.90;71.00;;;;;;5105826;27;43012;-78
2023/09/20 01:01:12;;;;;;;;;;;25.90;71.20;;;;;;5104542;27;43599;-79
2023/09/20 01:03:39;;;;;;;;;;;25.90;70.90;;;;;;5103833;27;43033;-78
2023/09/20 01:06:05;;;;;;;;;;;26.30;71.20;;;;;;5105913;27;43433;-78
2023/09/20 01:08:32;;;;;;;;;;;26.00;70.90;;;;;;5086014;27;43110;-78
2023/09/20 01:10:59;;;;;;;;;;;26.00;70.90;;;;;;5103666;27;43089;-78
2023/09/20 01:13:24;;;;;;;;;;;26.00;70.30;;;;;;5105623;27;42849;-77
2023/09/20 01:15:50;;;;;;;;;;;26.10;70.80;;;;;;5106177;27;43130;-77
2023/09/20 01:18:15;;;;;;;;;;;26.10;70.80;;;;;;5104627;27;43004;-78
2023/09/20 01:20:41;;;;;;;;;;;25.90;70.50;;;;;;5104725;27;42814;-78
2023/09/20 01:23:07;;;;;;;;;;;26.10;70.00;;;;;;5105719;27;43096;-78
2023/09/20 01:25:36;;;;;;;;;;;25.90;70.40;;;;;;5102379;27;43349;-79
2023/09/20 01:28:03;;;;;;;;;;;26.10;70.50;;;;;;5093375;27;43024;-78
2023/09/20 01:30:30;;;;;;;;;;;26.10;70.30;;;;;;5103128;27;43192;-78
2023/09/20 01:32:57;;;;;;;;;;;25.60;69.90;;;;;;5105095;27;43738;-78
2023/09/20 01:35:23;;;;;;;;;;;26.00;70.10;;;;;;5105146;27;42992;-78
2023/09/20 01:37:52;;;;;;;;;;;25.80;69.50;;;;;;5101776;27;42969;-79
2023/09/20 01:40:19;;;;;;;;;;;26.10;68.40;;;;;;5086895;27;43489;-77
2023/09/20 01:42:50;;;;;;;;;;;26.00;70.00;;;;;;5105372;27;43026;-78
2023/09/20 01:45:17;;;;;;;;;;;26.00;70.10;;;;;;5103760;27;42898;-77
2023/09/20 01:47:49;;;;;;;;;;;25.90;69.80;;;;;;5093562;27;43011;-78
2023/09/20 01:50:19;;;;;;;;;;;25.80;67.80;;;;;;5105288;27;43012;-78
2023/09/20 01:52:46;;;;;;;;;;;25.90;70.20;;;;;;5105656;27;42923;-78
2023/09/20 01:55:15;;;;;;;;;;;25.90;70.30;;;;;;5095324;27;43021;-78
2023/09/20 01:57:45;;;;;;;;;;;26.00;70.30;;;;;;5101283;27;60892;-79
2023/09/20 02:00:16;;;;;;;;;;;26.30;68.20;;;;;;5104185;27;42915;-78
2023/09/20 02:02:44;;;;;;;;;;;25.80;69.30;;;;;;5085368;27;43046;-78
2023/09/20 02:05:14;;;;;;;;;;;25.80;70.50;;;;;;5103183;27;43846;-78
2023/09/20 02:07:39;;;;;;;;;;;25.80;71.20;;;;;;5103837;27;43100;-78
2023/09/20 02:10:07;;;;;;;;;;;25.90;70.10;;;;;;5104403;27;43011;-78
2023/09/20 02:12:34;;;;;;;;;;;26.00;69.70;;;;;;5104668;27;42955;-78
2023/09/20 02:15:00;;;;;;;;;;;25.80;70.50;;;;;;5090941;27;43866;-78
2023/09/20 02:17:26;;;;;;;;;;;25.70;70.50;;;;;;5090954;27;42870;-77
2023/09/20 02:19:51;;;;;;;;;;;25.60;70.60;;;;;;5097169;27;44336;-78
2023/09/20 02:22:17;;;;;;;;;;;25.60;71.00;;;;;;5103842;27;42908;-77
2023/09/20 02:24:43;;;;;;;;;;;25.50;71.00;;;;;;5092972;27;43019;-79
2023/09/20 02:27:08;;;;;;;;;;;25.50;70.60;;;;;;5103744;27;43139;-76
2023/09/20 02:29:34;;;;;;;;;;;25.40;71.30;;;;;;5104164;27;43276;-79
2023/09/20 02:32:00;;;;;;;;;;;25.40;71.20;;;;;;5105552;27;42968;-78
2023/09/20 02:34:26;;;;;;;;;;;25.40;70.70;;;;;;5103772;27;43164;-78
2023/09/20 02:36:51;;;;;;;;;;;25.10;70.80;;;;;;5103917;27;42932;-79
2023/09/20 02:39:18;;;;;;;;;;;25.40;70.50;;;;;;5094230;27;43003;-78
2023/09/20 02:41:44;;;;;;;;;;;25.60;71.20;;;;;;5085251;27;43044;-77
2023/09/20 02:44:09;;;;;;;;;;;25.50;70.90;;;;;;5092977;27;43385;-78
2023/09/20 02:46:35;;;;;;;;;;;23.50;69.40;;;;;;5085576;27;42977;-78
2023/09/20 02:49:00;;;;;;;;;;;25.50;70.60;;;;;;5081733;28;43031;-79
2023/09/20 02:51:26;;;;;;;;;;;25.70;70.60;;;;;;5103796;27;42984;-77
2023/09/20 02:53:51;;;;;;;;;;;25.60;70.30;;;;;;5103948;27;43033;-78
2023/09/20 02:56:17;;;;;;;;;;;25.70;69.90;;;;;;5103751;27;43057;-79
2023/09/20 02:58:48;;;;;;;;;;;25.70;69.70;;;;;;5101267;27;43068;-78
2023/09/20 03:01:17;;;;;;;;;;;25.80;70.20;;;;;;5097288;27;42929;-78
2023/09/20 03:03:43;;;;;;;;;;;25.80;67.90;;;;;;5103991;27;44665;-78
2023/09/20 03:06:09;;;;;;;;;;;25.80;70.40;;;;;;5103331;27;43004;-79
2023/09/20 03:08:35;;;;;;;;;;;25.60;70.00;;;;;;5101076;27;44866;-78
2023/09/20 03:11:01;;;;;;;;;;;25.50;70.50;;;;;;5103553;27;42984;-78
2023/09/20 03:13:26;;;;;;;;;;;25.30;70.70;;;;;;5104450;27;43438;-78
2023/09/20 03:15:54;;;;;;;;;;;25.50;71.00;;;;;;5103187;27;43035;-78
2023/09/20 03:18:22;;;;;;;;;;;25.50;70.90;;;;;;5101019;27;43702;-78
2023/09/20 03:20:48;;;;;;;;;;;25.20;70.30;;;;;;5100828;27;42973;-78
2023/09/20 03:23:14;;;;;;;;;;;25.20;70.50;;;;;;5087012;27;44008;-78
2023/09/20 03:25:40;;;;;;;;;;;25.40;71.10;;;;;;5107868;27;42926;-78
2023/09/20 03:28:12;;;;;;;;;;;25.50;70.10;;;;;;5106168;27;43004;-79
2023/09/20 03:30:39;;;;;;;;;;;25.40;70.90;;;;;;5103694;27;43744;-79
2023/09/20 03:33:05;;;;;;;;;;;25.40;71.00;;;;;;5097604;27;43157;-78
2023/09/20 03:35:31;;;;;;;;;;;25.40;70.80;;;;;;5104248;27;43233;-79
2023/09/20 03:37:56;;;;;;;;;;;25.20;70.80;;;;;;5088256;27;44453;-78
2023/09/20 03:40:23;;;;;;;;;;;25.30;70.60;;;;;;5107762;27;43203;-78
2023/09/20 03:42:49;;;;;;;;;;;25.40;71.00;;;;;;5107233;27;43714;-78
2023/09/20 03:45:15;;;;;;;;;;;25.30;70.30;;;;;;5107172;27;42912;-79
2023/09/20 03:47:54;;;;;;;;;;;25.40;70.80;;;;;;5107540;27;42923;-79
2023/09/20 03:50:21;;;;;;;;;;;25.30;70.60;;;;;;5107352;27;42851;-78
2023/09/20 03:52:46;;;;;;;;;;;25.30;70.60;;;;;;5106563;27;43578;-79
2023/09/20 03:55:12;;;;;;;;;;;25.30;70.60;;;;;;5107643;27;42877;-79
2023/09/20 03:57:38;;;;;;;;;;;25.50;70.50;;;;;;5107343;27;42897;-79
2023/09/20 04:00:10;;;;;;;;;;;25.10;69.60;;;;;;5088776;27;42991;-79
2023/09/20 04:02:36;;;;;;;;;;;25.20;69.80;;;;;;5107145;27;43586;-78
2023/09/20 04:05:10;;;;;;;;;;;25.40;71.00;;;;;;5088741;27;42985;-79
2023/09/20 04:07:36;;;;;;;;;;;25.40;70.60;;;;;;5105990;27;42937;-76
2023/09/20 04:10:02;;;;;;;;;;;25.40;70.50;;;;;;5106571;27;43043;-79
2023/09/20 04:12:27;;;;;;;;;;;25.30;70.40;;;;;;5100003;27;42894;-79
2023/09/20 04:14:54;;;;;;;;;;;25.40;70.50;;;;;;5104951;27;42968;-79
2023/09/20 04:17:21;;;;;;;;;;;25.20;69.80;;;;;;5105413;27;43553;-78
2023/09/20 04:19:46;;;;;;;;;;;25.50;70.40;;;;;;5106545;27;42963;-79
2023/09/20 04:22:14;;;;;;;;;;;25.40;69.70;;;;;;5098843;27;43028;-79
2023/09/20 04:24:39;;;;;;;;;;;25.40;70.20;;;;;;5100321;27;42940;-79
2023/09/20 04:27:05;;;;;;;;;;;25.30;70.50;;;;;;5106950;27;43391;-80
2023/09/20 04:29:31;;;;;;;;;;;25.40;70.40;;;;;;5106501;27;42948;-79
2023/09/20 04:31:57;;;;;;;;;;;25.30;70.40;;;;;;5086981;27;43842;-78
2023/09/20 04:34:23;;;;;;;;;;;25.40;70.50;;;;;;5106205;27;42949;-79
2023/09/20 04:36:49;;;;;;;;;;;25.40;69.70;;;;;;5105462;27;43513;-79
2023/09/20 04:39:14;;;;;;;;;;;25.30;70.10;;;;;;5106207;27;43012;-78
2023/09/20 04:41:40;;;;;;;;;;;25.20;70.10;;;;;;5106456;27;43059;-78
2023/09/20 04:44:06;;;;;;;;;;;25.40;70.40;;;;;;5102399;27;42849;-79
2023/09/20 04:46:35;;;;;;;;;;;25.40;70.70;;;;;;5101924;27;43647;-79
2023/09/20 04:49:05;;;;;;;;;;;25.50;70.30;;;;;;5104783;27;43235;-77
2023/09/20 04:51:30;;;;;;;;;;;25.50;70.60;;;;;;5099817;27;42954;-78
2023/09/20 04:53:56;;;;;;;;;;;25.20;70.50;;;;;;5106887;27;42834;-79
2023/09/20 04:56:22;;;;;;;;;;;25.40;70.60;;;;;;5106610;27;43165;-79
2023/09/20 04:58:47;;;;;;;;;;;25.10;70.50;;;;;;5106723;27;42737;-79
2023/09/20 05:01:13;;;;;;;;;;;25.30;70.50;;;;;;5098218;27;42915;-78
2023/09/20 05:03:39;;;;;;;;;;;25.10;70.10;;;;;;5096941;27;42925;-78
2023/09/20 05:06:05;;;;;;;;;;;25.30;71.20;;;;;;5102633;27;43639;-79
2023/09/20 05:08:31;;;;;;;;;;;25.20;70.20;;;;;;5106366;27;43837;-79
2023/09/20 05:10:56;;;;;;;;;;;25.20;69.90;;;;;;5100840;27;43607;-78
2023/09/20 05:13:22;;;;;;;;;;;25.40;70.30;;;;;;5081436;27;42970;-79
2023/09/20 05:15:49;;;;;;;;;;;25.30;70.30;;;;;;5091065;27;43280;-79
2023/09/20 05:18:16;;;;;;;;;;;25.20;70.30;;;;;;5099921;27;42814;-79
2023/09/20 05:20:42;;;;;;;;;;;25.30;70.10;;;;;;5084254;27;44150;-78
2023/09/20 05:23:08;;;;;;;;;;;25.10;70.70;;;;;;5092417;27;42998;-79
2023/09/20 05:25:34;;;;;;;;;;;25.10;70.80;;;;;;5095332;27;43008;-79
2023/09/20 05:28:00;;;;;;;;;;;25.20;71.10;;;;;;5105721;27;43138;-79
2023/09/20 05:30:26;;;;;;;;;;;25.10;70.80;;;;;;5104857;27;43142;-79
2023/09/20 05:32:53;;;;;;;;;;;25.10;71.40;;;;;;5098578;27;43029;-79
2023/09/20 05:35:19;;;;;;;;;;;25.10;71.50;;;;;;5102694;27;42948;-78
2023/09/20 05:37:44;;;;;;;;;;;25.00;71.10;;;;;;5099202;27;42948;-78
2023/09/20 05:40:17;;;;;;;;;;;25.20;71.20;;;;;;5105088;27;42931;-78
2023/09/20 05:42:46;;;;;;;;;;;25.10;68.10;;;;;;5100018;27;42954;-78
2023/09/20 05:45:12;;;;;;;;;;;25.20;68.60;;;;;;5093730;27;42841;-78
2023/09/20 05:47:38;;;;;;;;;;;25.40;70.80;;;;;;5105054;27;42941;-78
2023/09/20 05:50:06;;;;;;;;;;;25.10;70.60;;;;;;5105362;27;43437;-78
2023/09/20 05:52:32;;;;;;;;;;;25.40;69.90;;;;;;5086266;27;43673;-79
2023/09/20 05:54:58;;;;;;;;;;;25.40;70.00;;;;;;5105380;27;43097;-77
2023/09/20 05:57:23;;;;;;;;;;;25.40;70.40;;;;;;5104960;27;42998;-78
2023/09/20 05:59:49;;;;;;;;;;;25.50;70.00;;;;;;5105039;27;43800;-80
2023/09/20 06:02:14;;;;;;;;;;;25.40;70.50;;;;;;5105090;27;43075;-79
2023/09/20 06:04:40;;;;;;;;;;;25.40;70.50;;;;;;5105251;27;43548;-78
2023/09/20 06:07:05;;;;;;;;;;;25.40;70.40;;;;;;5105145;27;43128;-79
2023/09/20 06:09:31;;;;;;;;;;;25.50;71.00;;;;;;5105277;27;43662;-79
2023/09/20 06:11:56;;;;;;;;;;;25.30;71.20;;;;;;5105205;27;42856;-78
2023/09/20 06:14:22;;;;;;;;;;;25.20;71.80;;;;;;5086411;27;42847;-79
2023/09/20 06:16:48;;;;;;;;;;;25.30;72.00;;;;;;5104909;27;42882;-78
2023/09/20 06:19:14;;;;;;;;;;;25.20;71.90;;;;;;5105557;27;43755;-78
2023/09/20 06:21:40;;;;;;;;;;;25.20;71.70;;;;;;5104785;27;43066;-79
2023/09/20 06:24:09;;;;;;;;;;;25.40;71.00;;;;;;5104746;27;43457;-78
2023/09/20 06:26:34;;;;;;;;;;;25.40;68.80;;;;;;5105455;27;43005;-79
2023/09/20 06:29:01;;;;;;;;;;;25.20;70.80;;;;;;5105221;27;42906;-78
2023/09/20 06:31:26;;;;;;;;;;;25.40;70.60;;;;;;5105015;27;42935;-78
2023/09/20 06:33:52;;;;;;;;;;;25.40;70.20;;;;;;5104762;27;42786;-77
2023/09/20 06:36:18;;;;;;;;;;;25.70;71.00;;;;;;5104624;27;43019;-78
2023/09/20 06:38:44;;;;;;;;;;;25.30;70.80;;;;;;5104730;27;42961;-78
2023/09/20 06:41:09;;;;;;;;;;;25.40;71.10;;;;;;5104391;27;43051;-76
2023/09/20 06:43:36;;;;;;;;;;;25.20;70.80;;;;;;5105070;27;43110;-77
2023/09/20 06:46:03;;;;;;;;;;;25.40;70.90;;;;;;5105116;27;42901;-78
2023/09/20 06:48:29;;;;;;;;;;;25.40;70.80;;;;;;5105017;27;43512;-77
2023/09/20 06:50:55;;;;;;;;;;;25.20;70.60;;;;;;5103815;27;43017;-78
2023/09/20 06:53:23;;;;;;;;;;;25.60;71.00;;;;;;5104768;27;43044;-77
2023/09/20 06:55:49;;;;;;;;;;;25.60;70.90;;;;;;5086348;27;43469;-77
2023/09/20 06:58:14;;;;;;;;;;;25.50;70.40;;;;;;5110512;27;43517;-77
2023/09/20 07:00:40;;;;;;;;;;;25.40;70.20;;;;;;5110747;27;42963;-78
2023/09/20 07:03:05;;;;;;;;;;;25.50;70.40;;;;;;5111404;27;43625;-77
2023/09/20 07:05:31;;;;;;;;;;;25.50;70.40;;;;;;5111172;27;43022;-78
2023/09/20 07:07:58;;;;;;;;;;;25.50;70.60;;;;;;5111952;27;43922;-78
2023/09/20 07:10:25;;;;;;;;;;;25.60;70.00;;;;;;5110391;27;42902;-77
2023/09/20 07:12:50;;;;;;;;;;;25.60;70.60;;;;;;5111324;27;42782;-78
2023/09/20 07:15:16;;;;;;;;;;;25.50;70.60;;;;;;5111850;27;42940;-77
2023/09/20 07:17:42;;;;;;;;;;;25.50;70.70;;;;;;5111580;27;42957;-76
2023/09/20 07:20:14;;;;;;;;;;;25.40;70.80;;;;;;5092629;27;42932;-77
2023/09/20 07:22:41;;;;;;;;;;;25.40;70.10;;;;;;5111569;27;43357;-78
2023/09/20 07:25:07;;;;;;;;;;;25.30;71.20;;;;;;5092613;27;42972;-77
2023/09/20 07:27:33;;;;;;;;;;;25.30;70.90;;;;;;5092706;27;44471;-77
2023/09/20 07:30:01;;;;;;;;;;;25.50;71.10;;;;;;5110895;27;42969;-78
2023/09/20 07:32:26;;;;;;;;;;;25.50;68.50;;;;;;5111633;27;43576;-76
2023/09/20 07:34:59;;;;;;;;;;;25.40;71.10;;;;;;5110980;27;43070;-79
2023/09/20 07:37:25;;;;;;;;;;;25.30;72.20;;;;;;5110680;27;43533;-78
2023/09/20 07:39:51;;;;;;;;;;;25.30;72.20;;;;;;5110765;27;42920;-79
2023/09/20 07:42:17;;;;;;;;;;;25.50;71.80;;;;;;5111321;27;44064;-78
2023/09/20 07:44:43;;;;;;;;;;;25.20;71.70;;;;;;5111382;27;42862;-78
2023/09/20 07:47:09;;;;;;;;;;;25.40;71.60;;;;;;5110972;27;44303;-78
2023/09/20 07:49:35;;;;;;;;;;;25.10;71.40;;;;;;5110867;27;43173;-78
2023/09/20 07:52:04;;;;;;;;;;;25.40;72.20;;;;;;5110610;27;43392;-78
2023/09/20 07:54:29;;;;;;;;;;;25.50;72.30;;;;;;5111161;27;42947;-79
2023/09/20 07:56:55;;;;;;;;;;;25.30;72.00;;;;;;5110972;27;42973;-79
2023/09/20 07:59:23;;;;;;;;;;;25.30;72.60;;;;;;5110413;27;42976;-79
2023/09/20 08:01:50;;;;;;;;;;;25.30;72.20;;;;;;5110996;27;43055;-79
2023/09/20 08:04:17;;;;;;;;;;;25.30;72.40;;;;;;5111217;27;42936;-79
2023/09/20 08:06:43;;;;;;;;;;;25.40;72.50;;;;;;5110864;27;43352;-80
2023/09/20 08:09:08;;;;;;;;;;;25.20;72.30;;;;;;5107034;27;43043;-79
2023/09/20 08:11:34;;;;;;;;;;;25.40;71.30;;;;;;5106897;27;43601;-79
2023/09/20 08:14:01;;;;;;;;;;;25.40;71.80;;;;;;5106852;27;42971;-78
2023/09/20 08:16:32;;;;;;;;;;;25.30;70.40;;;;;;5107649;27;42968;-79
2023/09/20 08:21:55;;;;;;;;;;;25.30;66.80;;;;;;5071418;27;43390;-79
2023/09/20 09:00:27;;;;;;;;;;;25.40;68.80;;;;;;5106205;27;42947;-79
2023/09/20 09:02:57;;;;;;;;;;;25.50;67.10;;;;;;5106597;27;42984;-78
2023/09/20 09:05:25;;;;;;;;;;;25.80;66.60;;;;;;5106356;27;42837;-78
2023/09/20 09:07:51;;;;;;;;;;;25.40;68.10;;;;;;5106518;27;43008;-78
2023/09/20 09:10:18;;;;;;;;;;;25.40;67.80;;;;;;5105711;27;42928;-78
2023/09/20 09:12:43;;;;;;;;;;;25.80;68.90;;;;;;5088183;27;42987;-79
2023/09/20 09:15:10;;;;;;;;;;;25.40;67.90;;;;;;5106132;27;43013;-78
2023/09/20 09:17:39;;;;;;;;;;;25.30;67.40;;;;;;5106147;27;42892;-79
2023/09/20 09:20:08;;;;;;;;;;;25.30;65.50;;;;;;5104646;27;44443;-79
2023/09/20 09:22:34;;;;;;;;;;;25.60;67.00;;;;;;5106205;27;42982;-78
2023/09/20 09:25:00;;;;;;;;;;;25.50;68.00;;;;;;5087497;27;43780;-79
2023/09/20 09:27:25;;;;;;;;;;;25.50;67.50;;;;;;5105845;27;42851;-79
2023/09/20 09:29:51;;;;;;;;;;;25.50;67.70;;;;;;5105550;27;43579;-79
2023/09/20 09:32:17;;;;;;;;;;;25.60;67.70;;;;;;5106512;27;42924;-78
2023/09/20 09:34:43;;;;;;;;;;;25.50;67.70;;;;;;5105585;27;43335;-79
2023/09/20 09:37:11;;;;;;;;;;;25.80;68.10;;;;;;5106264;27;42840;-79
2023/09/20 09:39:38;;;;;;;;;;;25.50;65.30;;;;;;5106204;27;43302;-78
2023/09/20 09:42:04;;;;;;;;;;;25.60;67.20;;;;;;5105737;27;43027;-79
2023/09/20 09:44:46;;;;;;;;;;;25.60;67.20;;;;;;5105462;27;43418;-79
2023/09/20 09:47:11;;;;;;;;;;;25.60;67.90;;;;;;5105943;27;42926;-79
2023/09/20 09:49:37;;;;;;;;;;;25.50;67.10;;;;;;5105839;27;42917;-78
2023/09/20 09:52:03;;;;;;;;;;;25.40;67.50;;;;;;5106360;27;43116;-79
2023/09/20 09:54:31;;;;;;;;;;;25.60;67.60;;;;;;5105951;27;43649;-79
2023/09/20 09:56:56;;;;;;;;;;;25.50;67.60;;;;;;5106345;27;42821;-80
2023/09/20 09:59:22;;;;;;;;;;;25.50;66.70;;;;;;5105354;27;43524;-78
2023/09/20 10:01:48;;;;;;;;;;;25.60;67.50;;;;;;5106111;27;42975;-78
2023/09/20 10:04:17;;;;;;;;;;;25.50;66.90;;;;;;5105426;27;42911;-79
2023/09/20 10:07:15;;;;;;;;;;;25.50;67.80;;;;;;5105857;27;42882;-79
2023/09/20 10:09:42;;;;;;;;;;;25.50;65.60;;;;;;5095837;27;43507;-79
2023/09/20 10:12:08;;;;;;;;;;;25.40;67.40;;;;;;5105354;27;43052;-79
2023/09/20 10:14:36;;;;;;;;;;;25.60;67.40;;;;;;5105373;27;43054;-79
2023/09/20 10:17:02;;;;;;;;;;;25.50;67.20;;;;;;5105402;27;43014;-78
2023/09/20 10:19:28;;;;;;;;;;;25.40;67.20;;;;;;5105473;27;43372;-79
2023/09/20 10:22:01;;;;;;;;;;;25.60;67.60;;;;;;5105319;27;42907;-79
2023/09/20 10:24:27;;;;;;;;;;;25.40;65.10;;;;;;5086791;27;43906;-79
2023/09/20 10:26:54;;;;;;;;;;;25.60;67.70;;;;;;5105470;27;43042;-79
2023/09/20 10:29:24;;;;;;;;;;;25.40;67.60;;;;;;5105616;27;43142;-78
2023/09/20 10:31:52;;;;;;;;;;;25.60;67.60;;;;;;5103982;27;42988;-78
2023/09/20 10:34:19;;;;;;;;;;;25.50;67.70;;;;;;5104960;27;43048;-79
2023/09/20 10:36:51;;;;;;;;;;;25.70;67.90;;;;;;5092095;27;42882;-79
2023/09/20 10:39:17;;;;;;;;;;;25.70;65.40;;;;;;5105028;27;43988;-79
2023/09/20 10:41:43;;;;;;;;;;;25.70;66.60;;;;;;5086565;27;43442;-78
2023/09/20 10:44:28;;;;;;;;;;;25.60;66.60;;;;;;5105036;27;42986;-78
2023/09/20 10:46:55;;;;;;;;;;;25.60;63.90;;;;;;5105132;27;43656;-79
2023/09/20 10:49:40;;;;;;;;;;;25.60;66.70;;;;;;5104759;27;42849;-78
2023/09/20 10:52:06;;;;;;;;;;;25.50;64.40;;;;;;5105226;27;42820;-79
2023/09/20 10:54:36;;;;;;;;;;;26.20;67.10;;;;;;5103777;27;43381;-78
2023/09/20 10:57:07;;;;;;;;;;;25.70;66.60;;;;;;5104178;27;43015;-78
2023/09/20 10:59:34;;;;;;;;;;;25.60;67.10;;;;;;5104126;27;43015;-77
2023/09/20 11:02:08;;;;;;;;;;;25.80;67.40;;;;;;5104927;27;42989;-79
2023/09/20 11:04:35;;;;;;;;;;;25.70;65.20;;;;;;5105064;27;43030;-78
2023/09/20 11:07:02;;;;;;;;;;;25.70;67.10;;;;;;5105211;27;42853;-81
2023/09/20 11:09:31;;;;;;;;;;;25.70;68.00;;;;;;5104679;27;43528;-77
2023/09/20 11:12:04;;;;;;;;;;;25.50;68.60;;;;;;5104627;27;42950;-79
2023/09/20 11:14:35;;;;;;;;;;;25.60;69.00;;;;;;5104474;27;43015;-78
2023/09/20 11:17:02;;;;;;;;;;;25.90;66.50;;;;;;5105004;27;43022;-80
2023/09/20 11:19:28;;;;;;;;;;;25.80;68.70;;;;;;5104972;27;43432;-79
2023/09/20 11:21:54;;;;;;;;;;;25.80;68.80;;;;;;5104753;27;42959;-78
2023/09/20 11:24:19;;;;;;;;;;;25.60;68.70;;;;;;5104750;27;43512;-79
2023/09/20 11:26:47;;;;;;;;;;;25.80;69.40;;;;;;5104103;27;42890;-78
2023/09/20 11:29:15;;;;;;;;;;;25.80;69.40;;;;;;5104108;27;43446;-79
2023/09/20 11:31:43;;;;;;;;;;;26.00;69.00;;;;;;5103836;27;42979;-79
2023/09/20 11:34:08;;;;;;;;;;;25.80;68.90;;;;;;5103854;27;42928;-78
2023/09/20 11:36:37;;;;;;;;;;;25.80;69.00;;;;;;5104045;27;43141;-78
2023/09/20 11:39:05;;;;;;;;;;;25.80;66.40;;;;;;5104140;27;43016;-79
2023/09/20 11:41:32;;;;;;;;;;;26.00;68.60;;;;;;5085829;27;43070;-78
2023/09/20 11:43:58;;;;;;;;;;;25.80;68.70;;;;;;5106689;27;42977;-78
2023/09/20 11:46:27;;;;;;;;;;;25.80;68.30;;;;;;5108192;27;42952;-78
2023/09/20 11:48:56;;;;;;;;;;;25.70;69.20;;;;;;5107647;27;42917;-79
2023/09/20 11:51:22;;;;;;;;;;;25.80;69.50;;;;;;5107726;27;42952;-78
2023/09/20 11:53:51;;;;;;;;;;;25.70;69.20;;;;;;5107813;27;42948;-77
2023/09/20 11:56:23;;;;;;;;;;;25.80;68.80;;;;;;5095283;27;42805;-78
2023/09/20 11:58:49;;;;;;;;;;;25.80;67.00;;;;;;5106735;27;43486;-79
2023/09/20 12:01:21;;;;;;;;;;;25.80;68.60;;;;;;5108045;27;42988;-78
2023/09/20 12:03:46;;;;;;;;;;;25.80;69.20;;;;;;5107352;27;43504;-78
2023/09/20 12:06:12;;;;;;;;;;;25.90;69.10;;;;;;5108019;27;42812;-78
2023/09/20 12:08:37;;;;;;;;;;;25.80;69.20;;;;;;5107268;27;43851;-78
2023/09/20 12:11:03;;;;;;;;;;;25.60;69.00;;;;;;5107622;27;42944;-77
2023/09/20 12:13:29;;;;;;;;;;;25.90;68.10;;;;;;5087993;27;44722;-78
2023/09/20 12:15:54;;;;;;;;;;;25.80;68.40;;;;;;5107098;27;42883;-78
2023/09/20 12:18:20;;;;;;;;;;;25.60;68.20;;;;;;5086921;27;43060;-77
2023/09/20 12:20:45;;;;;;;;;;;25.90;68.50;;;;;;5106991;27;42974;-78
2023/09/20 12:23:12;;;;;;;;;;;25.90;68.10;;;;;;5106032;27;42862;-79
2023/09/20 12:25:39;;;;;;;;;;;25.80;68.60;;;;;;5107337;27;43172;-78
2023/09/20 12:28:05;;;;;;;;;;;25.80;68.70;;;;;;5106620;27;43552;-78
2023/09/20 12:30:30;;;;;;;;;;;25.80;68.70;;;;;;5107796;27;42909;-79
2023/09/20 12:32:56;;;;;;;;;;;25.80;68.40;;;;;;5107081;27;43999;-79
2023/09/20 12:35:22;;;;;;;;;;;25.80;69.00;;;;;;5105789;27;42864;-79
2023/09/20 12:37:47;;;;;;;;;;;25.60;68.80;;;;;;5106788;27;42908;-79
2023/09/20 12:40:13;;;;;;;;;;;25.70;69.40;;;;;;5107516;27;42906;-78
2023/09/20 12:42:38;;;;;;;;;;;25.70;69.30;;;;;;5107180;27;43451;-78
2023/09/20 12:45:08;;;;;;;;;;;25.90;68.60;;;;;;5106818;27;42940;-78
2023/09/20 12:47:34;;;;;;;;;;;25.70;66.50;;;;;;5106474;27;43460;-79
2023/09/20 12:50:00;;;;;;;;;;;25.90;68.70;;;;;;5087889;27;43120;-79
2023/09/20 12:52:26;;;;;;;;;;;25.90;68.60;;;;;;5106794;27;43412;-78
2023/09/20 12:54:51;;;;;;;;;;;26.00;68.20;;;;;;5106578;27;42954;-79
2023/09/20 12:57:17;;;;;;;;;;;25.90;68.40;;;;;;5106294;27;43426;-80
2023/09/20 12:59:42;;;;;;;;;;;26.00;68.40;;;;;;5107068;27;43100;-79
2023/09/20 13:02:08;;;;;;;;;;;25.90;68.40;;;;;;5088807;27;42931;-79
2023/09/20 13:04:34;;;;;;;;;;;25.80;68.10;;;;;;5106679;27;42951;-79
2023/09/20 13:06:59;;;;;;;;;;;25.70;67.90;;;;;;5106443;27;42990;-79
2023/09/20 13:09:25;;;;;;;;;;;25.70;68.00;;;;;;5106291;27;42951;-78
2023/09/20 13:11:51;;;;;;;;;;;25.70;68.10;;;;;;5106161;27;43598;-79
2023/09/20 13:14:19;;;;;;;;;;;25.90;68.20;;;;;;5106790;27;42809;-79
2023/09/20 13:16:45;;;;;;;;;;;26.00;68.60;;;;;;5087655;27;43632;-80
2023/09/20 13:19:11;;;;;;;;;;;25.90;68.20;;;;;;5106319;27;42973;-79
2023/09/20 13:21:37;;;;;;;;;;;26.00;68.10;;;;;;5105950;27;43464;-78
2023/09/20 13:24:06;;;;;;;;;;;25.80;68.10;;;;;;5087872;27;43028;-78
2023/09/20 13:26:31;;;;;;;;;;;25.90;67.90;;;;;;5105685;27;43004;-79
2023/09/20 13:28:57;;;;;;;;;;;25.90;68.30;;;;;;5106415;27;42960;-79
2023/09/20 13:31:22;;;;;;;;;;;25.90;68.30;;;;;;5105292;27;42885;-80
2023/09/20 13:33:48;;;;;;;;;;;25.80;68.60;;;;;;5105334;27;43067;-79
2023/09/20 13:36:13;;;;;;;;;;;25.80;68.60;;;;;;5105862;27;43215;-79
2023/09/20 13:38:39;;;;;;;;;;;25.90;68.60;;;;;;5106281;27;42969;-79
2023/09/20 13:41:04;;;;;;;;;;;25.80;68.50;;;;;;5106125;27;43298;-78
2023/09/20 13:43:30;;;;;;;;;;;25.80;68.50;;;;;;5106431;27;43838;-78
2023/09/20 13:45:56;;;;;;;;;;;25.90;68.60;;;;;;5105681;27;42989;-79
2023/09/20 13:48:23;;;;;;;;;;;25.80;68.50;;;;;;5106541;27;42944;-79
2023/09/20 13:50:48;;;;;;;;;;;26.00;68.00;;;;;;5105297;27;43377;-79
2023/09/20 13:53:14;;;;;;;;;;;26.00;67.90;;;;;;5106253;27;42935;-79
2023/09/20 13:55:40;;;;;;;;;;;26.00;68.50;;;;;;5105737;27;42896;-79
2023/09/20 13:58:07;;;;;;;;;;;26.00;68.90;;;;;;5105906;27;42885;-78
2023/09/20 14:00:33;;;;;;;;;;;25.90;68.70;;;;;;5104695;27;43588;-78
2023/09/20 14:03:01;;;;;;;;;;;26.10;68.40;;;;;;5105977;27;42805;-79
2023/09/20 14:05:27;;;;;;;;;;;25.90;69.00;;;;;;5105263;27;43755;-78
2023/09/20 14:07:55;;;;;;;;;;;25.90;69.00;;;;;;5105576;27;42887;-79
2023/09/20 14:10:21;;;;;;;;;;;25.80;68.90;;;;;;5105006;27;43465;-79
2023/09/20 14:12:47;;;;;;;;;;;26.00;68.80;;;;;;5105948;27;42972;-79
2023/09/20 14:15:19;;;;;;;;;;;26.00;69.10;;;;;;5105436;27;43593;-79
2023/09/20 14:17:47;;;;;;;;;;;25.80;68.80;;;;;;5106394;27;43079;-78
2023/09/20 14:20:18;;;;;;;;;;;25.80;69.10;;;;;;5105042;27;44158;-78
2023/09/20 14:22:52;;;;;;;;;;;25.80;72.40;;;;;;5105600;27;42971;-79
2023/09/20 14:25:18;;;;;;;;;;;25.70;72.90;;;;;;5105095;27;43002;-78
2023/09/20 14:27:43;;;;;;;;;;;26.20;76.30;;;;;;5105167;27;43629;-77
2023/09/20 14:30:15;;;;;;;;;;;25.90;75.20;;;;;;5104325;27;43684;-79
2023/09/20 14:32:44;;;;;;;;;;;26.00;73.80;;;;;;5105446;27;42975;-78
2023/09/20 14:35:12;;;;;;;;;;;26.00;72.20;;;;;;5092696;27;43616;-78
2023/09/20 14:37:38;;;;;;;;;;;26.00;74.10;;;;;;5104193;27;43032;-78
2023/09/20 14:40:12;;;;;;;;;;;26.10;75.20;;;;;;5104180;27;43300;-78
2023/09/20 14:42:43;;;;;;;;;;;26.00;74.90;;;;;;5104636;27;42873;-78
2023/09/20 14:45:09;;;;;;;;;;;26.10;76.40;;;;;;5104668;27;43905;-77
2023/09/20 14:47:35;;;;;;;;;;;26.00;76.70;;;;;;5104694;27;42822;-78
2023/09/20 14:50:01;;;;;;;;;;;25.90;77.30;;;;;;5104859;27;44671;-78
2023/09/20 14:52:27;;;;;;;;;;;26.00;77.40;;;;;;5104951;27;42758;-79